Flight Track Log - Related Links

Times and Time Zones

All times are in EDT time to prevent confusion due to time zone crossing. See the AAL2360 flight status page for this flight to view local times or setup timezone preferences in your user account.

Time Position Orientation Groundspeed Altitude Reporting Facility
EDT Latitude Longitude Course Direction KTS MPH feet Rate Location/Type
Sat 04:37:47 PM 32.8833 -97.0333 347° North 167 192 2,000  Level Dallas / Fort Worth TRACON
Sat 04:38:48 PM 32.8167 -97.0167 168° South 214 246 4,000 2,579 Climbing Dallas / Fort Worth TRACON
Sat 04:39:48 PM 32.7667 -96.9667 140° Southeast 248 285 7,200 1,884 Climbing Dallas / Fort Worth TRACON
Sat 04:40:00 PM 32.8534 -96.8000 North  Level FlightAware Approximate
Sat 04:41:00 PM 32.9729 -96.8000 North  Level FlightAware Approximate
Sat 04:42:00 PM 33.0872 -96.8392 347° North  Level FlightAware Approximate
Sat 04:42:15 PM 32.8611 -96.8050 55° Northeast 246 283 10,500  Level Fort Worth Center
Sat 04:43:00 PM 33.2034 -96.8723 347° North  Level FlightAware Approximate
Sat 04:43:15 PM 32.9553 -96.8267 349° North 278 320 13,700  Level Fort Worth Center
Sat 04:44:15 PM 33.0575 -96.8558 347° North 343 395 16,400 2,200 Climbing Fort Worth Center
Sat 04:45:15 PM 33.1517 -96.8825 347° North 374 430 18,100 2,050 Climbing Fort Worth Center
Sat 04:46:15 PM 33.2728 -96.9142 348° North 397 457 20,500 2,400 Climbing Fort Worth Center
Sat 04:47:15 PM 33.3878 -96.9458 347° North 415 478 22,900 1,950 Climbing Fort Worth Center
Sat 04:48:15 PM 33.5089 -96.9400 North 420 483 24,400 1,750 Climbing Fort Worth Center
Sat 04:49:15 PM 33.6317 -96.8919 18° North 449 517 26,400 1,600 Climbing Fort Worth Center
Sat 04:50:15 PM 33.7442 -96.8489 18° North 462 532 27,600 1,550 Climbing Fort Worth Center
Sat 04:51:15 PM 33.8692 -96.8006 18° North 467 537 29,500 1,850 Climbing Fort Worth Center
Sat 04:52:15 PM 33.9942 -96.7522 18° North 467 537 31,300 1,650 Climbing Fort Worth Center
Sat 04:53:15 PM 34.1253 -96.6958 20° North 461 531 32,800 1,300 Climbing Fort Worth Center
Sat 04:54:15 PM 34.2461 -96.6497 18° North 456 525 33,900 1,000 Climbing Fort Worth Center
Sat 04:55:15 PM 34.3669 -96.5958 20° North 451 519 34,800 550 Climbing Fort Worth Center
Sat 04:56:15 PM 34.4833 -96.5292 25° Northeast 451 519 35,000 100 Climbing Fort Worth Center
Sat 04:57:15 PM 34.6039 -96.4650 24° Northeast 456 525 35,000  Level Fort Worth Center
Sat 04:58:15 PM 34.7222 -96.4006 24° Northeast 456 525 35,000  Level Fort Worth Center
Sat 04:59:15 PM 34.8406 -96.3358 24° Northeast 456 525 35,000  Level Fort Worth Center
Sat 05:00:15 PM 34.9589 -96.2711 24° Northeast 456 525 35,000  Level Fort Worth Center
Sat 05:01:15 PM 35.0750 -96.2061 25° Northeast 456 525 35,000  Level Fort Worth Center
Sat 05:02:15 PM 35.1933 -96.1408 24° Northeast 456 525 35,000  Level Fort Worth Center
Sat 05:03:15 PM 35.3033 -96.0806 24° Northeast 462 532 35,000 29 Level Fort Worth Center
Sat 05:05:40 PM 35.5808 -95.9281 24° Northeast 467 537 35,100  Climbing Kansas City Center
Sat 05:06:40 PM 35.6981 -95.8589 26° Northeast 467 537 35,000 -48 Descending Kansas City Center
Sat 05:07:44 PM 35.8150 -95.7175 44° Northeast 486 559 35,000 48 Level Kansas City Center
Sat 05:08:46 PM 35.9106 -95.5994 45° Northeast 487 560 35,100 49 Climbing Kansas City Center
Sat 05:09:47 PM 36.0058 -95.4825 45° Northeast 486 559 35,100  Level Kansas City Center
Sat 05:10:47 PM 36.1083 -95.3556 45° Northeast 488 562 35,100 -49 Level Kansas City Center
Sat 05:11:49 PM 36.2033 -95.2378 45° Northeast 486 559 35,000 -95 Descending Kansas City Center
Sat 05:12:53 PM 36.2986 -95.1194 45° Northeast 486 559 34,900  Descending Kansas City Center
Sat 05:13:53 PM 36.4031 -94.9897 45° Northeast 486 559 35,000 97 Climbing Kansas City Center
Sat 05:14:57 PM 36.4981 -94.8703 45° Northeast 487 560 35,100 48 Climbing Kansas City Center
Sat 05:15:58 PM 36.5922 -94.7517 45° Northeast 485 558 35,100 -49 Level Kansas City Center
Sat 05:16:59 PM 36.6858 -94.6328 46° Northeast 483 556 35,000 -49 Descending Kansas City Center
Sat 05:18:01 PM 36.7803 -94.5136 45° Northeast 483 556 35,000 -48 Level Kansas City Center
Sat 05:19:03 PM 36.8767 -94.3997 43° Northeast 479 551 34,900  Descending Kansas City Center
Sat 05:20:05 PM 37.0047 -94.2808 37° Northeast 477 549 35,000 49 Climbing Kansas City Center
Sat 05:21:06 PM 37.1094 -94.1772 38° Northeast 479 551 35,000 50 Level Kansas City Center
Sat 05:22:06 PM 37.2000 -94.0878 38° Northeast 479 551 35,100 49 Climbing Kansas City Center
Sat 05:23:09 PM 37.3261 -93.9628 38° Northeast 479 551 35,100  Level Kansas City Center
Sat 05:24:12 PM 37.4308 -93.8572 39° Northeast 480 552 35,100  Level Kansas City Center
Sat 05:25:13 PM 37.5350 -93.7531 38° Northeast 477 549 35,100 -50 Level Kansas City Center
Sat 05:26:13 PM 37.6392 -93.6500 38° Northeast 474 545 35,000 -98 Descending Kansas City Center
Sat 05:27:16 PM 37.7414 -93.5458 39° Northeast 472 543 34,900 -48 Descending Kansas City Center
Sat 05:28:18 PM 37.8444 -93.4428 38° Northeast 470 541 34,900 48 Level Kansas City Center
Sat 05:29:21 PM 37.9467 -93.3375 39° Northeast 471 542 35,000 49 Climbing Kansas City Center
Sat 05:30:21 PM 38.0494 -93.2339 38° Northeast 470 541 35,000  Level Kansas City Center
Sat 05:31:22 PM 38.1528 -93.1289 39° Northeast 470 541 35,000 -48 Level Kansas City Center
Sat 05:32:26 PM 38.2778 -93.0003 39° Northeast 474 545 34,900  Descending Kansas City Center
Sat 05:33:28 PM 38.3806 -92.8942 39° Northeast 472 543 35,000 98 Climbing Kansas City Center
Sat 05:34:28 PM 38.4839 -92.7883 39° Northeast 472 543 35,100  Climbing Kansas City Center
Sat 05:35:29 PM 38.5856 -92.6817 39° Northeast 470 541 35,000 -48 Descending Kansas City Center
Sat 05:36:33 PM 38.6886 -92.5744 39° Northeast 471 542 35,000 48 Level Kansas City Center
Sat 05:37:35 PM 38.7925 -92.4661 39° Northeast 476 548 35,100  Climbing Kansas City Center
Sat 05:38:35 PM 38.8931 -92.3586 40° Northeast 472 543 35,000  Descending Kansas City Center
Sat 05:39:37 PM 38.9950 -92.2536 39° Northeast 469 540 35,100  Climbing Kansas City Center
Sat 05:40:38 PM 39.0944 -92.1481 39° Northeast 464 534 35,000 -49 Descending Kansas City Center
Sat 05:41:40 PM 39.1775 -92.0181 50° Northeast 469 540 35,000  Level Kansas City Center
Sat 05:42:41 PM 39.2611 -91.8692 54° Northeast 469 540 35,000 -155 Level Kansas City Center
Sat 05:44:15 PM 39.3967 -91.6703 49° Northeast 466 536 34,600 -484 Descending Chicago Center
Sat 05:44:45 PM 39.4472 -91.6144 40° Northeast 465 535 34,000 -989 Descending Kansas City Center
Sat 05:45:46 PM 39.5533 -91.4967 41° Northeast 468 539 33,100 -492 Descending Kansas City Center
Sat 05:46:47 PM 39.6500 -91.3850 42° Northeast 470 541 33,000 -48 Descending Kansas City Center
Sat 05:47:51 PM 39.7425 -91.2769 42° Northeast 471 542 33,000  Level Kansas City Center
Sat 05:48:52 PM 39.8419 -91.1611 42° Northeast 468 539 33,000  Level Kansas City Center
Sat 05:49:53 PM 39.9381 -91.0486 42° Northeast 468 539 33,000  Level Kansas City Center
Sat 05:50:57 PM 40.0478 -90.9222 41° Northeast 470 541 33,000  Level Kansas City Center
Sat 05:51:58 PM 40.1450 -90.8075 42° Northeast 470 541 33,000  Level Kansas City Center
Sat 05:52:28 PM 40.2039 -90.7394 41° Northeast 470 541 33,000  Level Chicago Center
Sat 05:53:29 PM 40.3006 -90.6253 42° Northeast 468 539 33,000  Level Chicago Center
Sat 05:54:31 PM 40.3981 -90.5100 42° Northeast 471 542 33,000  Level Chicago Center
Sat 05:55:33 PM 40.4953 -90.3942 42° Northeast 471 542 33,000  Level Chicago Center
Sat 05:56:34 PM 40.5925 -90.2769 42° Northeast 471 542 33,000 -49 Level Chicago Center
Sat 05:57:36 PM 40.6853 -90.1583 44° Northeast 471 542 32,900 -968 Descending Chicago Center
Sat 05:58:38 PM 40.7617 -90.0125 55° Northeast 478 550 31,000 -2,293 Descending Chicago Center
Sat 05:59:39 PM 40.8589 -89.8444 53° Northeast 478 550 28,200 -2,390 Descending Chicago Center
Sat 06:00:41 PM 40.9389 -89.7069 52° Northeast 475 547 26,100 -1,694 Descending Chicago Center
Sat 06:01:43 PM 41.0117 -89.5825 52° Northeast 471 542 24,700 -1,854 Descending Chicago Center
Sat 06:02:44 PM 41.0878 -89.4511 52° Northeast 453 521 22,300 -2,488 Descending Chicago Center
Sat 06:03:46 PM 41.1753 -89.3003 52° Northeast 432 497 19,600 -2,146 Descending Chicago Center
Sat 06:04:47 PM 41.2353 -89.1953 53° Northeast 417 480 17,900 -2,195 Descending Chicago Center
Sat 06:05:49 PM 41.3131 -89.0578 53° Northeast 393 452 15,100 -2,468 Descending Chicago Center
Sat 06:06:51 PM 41.3781 -88.9422 53° Northeast 391 450 12,800 -1,902 Descending Chicago Center
Sat 06:07:52 PM 41.4408 -88.8319 53° Northeast 377 434 11,200 -878 Descending Chicago Center
Sat 06:08:54 PM 41.5017 -88.7242 53° Northeast 367 422 11,000 -49 Descending Chicago Center
Sat 06:09:55 PM 41.5511 -88.6042 61° Northeast 368 423 11,100 49 Climbing Chicago Center
Sat 06:10:57 PM 41.5994 -88.4861 61° Northeast 363 418 11,100 -146 Level Chicago Center
Sat 06:11:58 PM 41.6581 -88.3819 53° Northeast 349 402 10,800 -634 Descending Chicago Center
Sat 06:13:00 PM 41.7089 -88.2942 52° Northeast 304 350 9,800 -1,113 Descending Chicago Center
Sat 06:14:02 PM 41.7567 -88.2133 52° Northeast 281 323 8,500 -1,366 Descending Chicago Center
Sat 06:15:03 PM 41.8122 -88.1169 52° Northeast 273 314 7,000 -732 Descending Chicago Center
Sat 06:16:05 PM 41.8569 -88.0375 53° Northeast 268 308 7,000 55 Level Chicago Center
Sat 06:16:53 PM 41.8833 -87.9667 63° Northeast 273 314 7,100 56 Climbing Chicago TRACON
Sat 06:17:53 PM 41.8833 -87.8667 90° East 227 261 7,100  Level Chicago TRACON
Sat 06:18:53 PM 41.8833 -87.8000 90° East 194 223 7,100 -350 Level Chicago TRACON
Sat 06:19:53 PM 41.8833 -87.7167 90° East 190 219 6,400 -1,041 Descending Chicago TRACON
Sat 06:20:54 PM 41.9000 -87.6667 66° East 198 228 5,000 -1,140 Descending Chicago TRACON
Sat 06:21:54 PM 41.9333 -87.6833 340° North 169 194 4,100 -850 Descending Chicago TRACON
Sat 06:22:54 PM 41.9667 -87.7167 323° Northwest 156 180 3,300 -900 Descending Chicago TRACON
Sat 06:23:54 PM 41.9667 -87.7833 270° West 163 188 2,300 -700 Descending Chicago TRACON
Sat 06:24:54 PM 41.9667 -87.8333 270° West 160 184 1,900 800 Descending Chicago TRACON
Sat 06:25:54 PM 41.9333 -87.8500 200° South 210 242 3,900 1,100 Climbing Chicago TRACON
Sat 06:26:54 PM 41.8833 -87.8000 143° Southeast 216 249 4,100 100 Climbing Chicago TRACON
Sat 06:27:54 PM 41.8500 -87.7500 132° Southeast 211 243 4,100 650 Level Chicago TRACON
Sat 06:28:54 PM 41.8000 -87.7333 166° South 214 246 5,400 1,000 Climbing Chicago TRACON
Sat 06:29:54 PM 41.8000 -87.8167 270° West 193 222 6,100 347 Climbing Chicago TRACON
Sat 06:30:55 PM 41.8167 -87.8667 294° West 165 190 6,100  Level Chicago TRACON
Sat 06:31:55 PM 41.8333 -87.9333 289° West 173 199 6,100 -126 Level Chicago TRACON
Sat 06:32:30 PM 41.8314 -87.9619 265° West 174 200 5,900 -63 Descending Chicago Center
Sat 06:33:31 PM 41.8322 -88.0264 271° West 174 200 6,000 49 Climbing Chicago Center
Sat 06:34:33 PM 41.8450 -88.0853 286° West 173 199 6,000 -488 Level Chicago Center
Sat 06:35:34 PM 41.8697 -88.1533 296° West 172 198 5,000 -976 Descending Chicago Center
Sat 06:36:36 PM 41.8975 -88.1956 311° West 177 204 4,000 -968 Descending Chicago Center

Login

Don't have an account? Register now (free) for customized features, flight alerts, and more!